createdAt,value
2019-05-16T00:04:02.567Z,0.00
2019-05-16T00:19:02.789Z,0.00
2019-05-16T00:34:02.981Z,0.00
2019-05-16T00:49:03.107Z,0.00
2019-05-16T01:04:03.199Z,0.00
2019-05-16T03:14:12.806Z,0.00
2019-05-16T03:29:12.938Z,5.62
2019-05-16T03:44:13.418Z,11.25
2019-05-16T03:59:32.737Z,22.50
2019-05-16T04:14:33.603Z,33.75
2019-05-16T04:29:34.108Z,39.38
2019-05-16T04:44:34.277Z,16.88
2019-05-16T04:59:34.497Z,16.88
2019-05-16T05:14:34.679Z,28.12
2019-05-16T05:29:34.829Z,39.38
2019-05-16T05:44:35.037Z,50.62
2019-05-16T05:59:35.282Z,61.88
2019-05-16T06:14:35.451Z,129.38
2019-05-16T06:29:35.664Z,106.88
2019-05-16T06:44:35.870Z,67.50
2019-05-16T06:59:36.062Z,56.25
2019-05-16T07:14:36.262Z,67.50
2019-05-16T07:29:37.115Z,90.00
2019-05-16T07:44:37.695Z,90.00
2019-05-16T07:59:40.440Z,140.62
2019-05-16T08:14:41.204Z,202.50
2019-05-16T08:29:41.401Z,191.25
2019-05-16T08:44:41.914Z,135.00
2019-05-16T08:59:42.658Z,191.25
2019-05-16T09:14:42.845Z,208.12
2019-05-16T09:29:43.049Z,174.38
2019-05-16T09:44:43.178Z,123.75
2019-05-16T09:59:43.362Z,174.38
2019-05-16T10:14:43.511Z,146.25
2019-05-16T10:29:43.673Z,129.38
2019-05-16T10:44:43.894Z,275.62
2019-05-16T11:00:04.245Z,247.50
2019-05-16T11:14:49.208Z,213.75
2019-05-16T11:29:49.366Z,388.12
2019-05-16T11:44:49.529Z,258.75
2019-05-16T11:59:49.706Z,241.88
2019-05-16T12:14:49.844Z,258.75
2019-05-16T12:29:54.846Z,292.50
2019-05-16T12:44:56.315Z,213.75
2019-05-16T12:59:57.017Z,202.50
2019-05-16T13:14:57.425Z,371.25
2019-05-16T13:29:58.246Z,281.25
2019-05-16T13:44:58.865Z,331.88
2019-05-16T13:59:59.181Z,326.25
2019-05-16T14:14:59.380Z,376.88
2019-05-16T14:29:59.575Z,365.62
2019-05-16T14:45:11.210Z,320.62
2019-05-16T15:00:07.200Z,281.25
2019-05-16T15:15:20.206Z,168.75
2019-05-16T15:30:13.947Z,135.00
2019-05-16T15:45:14.065Z,123.75
2019-05-16T16:00:17.988Z,106.88
2019-05-16T16:15:18.419Z,73.12
2019-05-16T16:30:18.839Z,33.75
2019-05-16T16:45:18.733Z,39.38
2019-05-16T17:00:18.896Z,22.50
2019-05-16T17:15:19.044Z,22.50
2019-05-16T17:30:19.211Z,22.50
2019-05-16T17:45:19.319Z,22.50
2019-05-16T18:00:25.348Z,22.50
2019-05-16T18:15:25.888Z,16.88
2019-05-16T18:30:27.100Z,5.62
2019-05-16T18:45:27.231Z,0.00
2019-05-16T19:00:27.370Z,0.00
2019-05-16T19:15:27.554Z,0.00
2019-05-16T19:30:27.683Z,0.00
2019-05-16T19:45:27.896Z,0.00
2019-05-16T20:00:28.109Z,0.00
2019-05-16T20:15:28.239Z,0.00
2019-05-16T20:30:28.394Z,0.00
2019-05-16T20:45:28.600Z,0.00
2019-05-16T21:00:28.824Z,0.00
2019-05-16T21:15:29.023Z,0.00
2019-05-16T21:30:29.235Z,0.00
2019-05-16T21:45:29.390Z,0.00
2019-05-16T22:00:29.553Z,0.00
2019-05-16T22:15:29.727Z,0.00
2019-05-16T22:30:29.958Z,0.00
2019-05-16T22:45:30.155Z,0.00
2019-05-16T23:00:30.374Z,0.00
2019-05-16T23:15:30.572Z,0.00
2019-05-16T23:30:30.765Z,0.00
2019-05-16T23:45:31.005Z,0.00
